< < Back
Terminal Aerodrome Forecast


Current Version              Previous Versions:   1  2  3  4  5  6  7  8  9  

Terminal Aerodrome Forecast

140
FTUS44 KOHX 221700
TAFBNA
TAF
KBNA 221724Z 2218/2318 06006KT P6SM SCT250
     FM231300 14006KT P6SM SCT250=

Latest METAR

526
SAUS70 KWBC 230100 RRP
MTRBNA
METAR KBNA 230053Z 06003KT 10SM SCT250 21/07 A3027 RMK AO2 SLP248
T02060067


USA.gov is the U.S. government's official web portal to all federal, state and local government web resources and services.